KEWN/EWN METAR and TAF weather

Enter ICAO airport designator
Station Type Date Time Source
KEWN METAR 2021/05/10 01:54 UTC NOAA

KEWN 100154Z AUTO 21012G18KT 10SM CLR 22/15 A2999 RMK AO2 SLP156 T02170150


Station Type Date Time Source
KEWN Decoded METAR 2021/05/10 01:54 UTC NOAA

New Bern, Craven County Regional Airport, NC, United States (KEWN) 35-04-03N 077-02-50W 3M
May 09, 2021 - 09:54 PM EDT / 2021.05.10 0154 UTC
Wind: from the SSW (210 degrees) at 14 MPH (12 KT) gusting to 21 MPH (18 KT):0
Visibility: 10 mile(s):0
Sky conditions: clear
Temperature: 71.1 F (21.7 C)
Dew Point: 59.0 F (15.0 C)
Relative Humidity: 65%
Pressure (altimeter): 29.99 in. Hg (1015 hPa)
ob: KEWN 100154Z AUTO 21012G18KT 10SM CLR 22/15 A2999 RMK AO2 SLP156 T02170150
cycle: 2

Station Type Date Time Source
KEWN TAF 2021/05/09 18:27 UTC NOAA

TAF KEWN 091725Z 0918/1018 21012G20KT P6SM FEW200
FM092100 20015G25KT P6SM SCT200
FM100600 21011G19KT P6SM BKN150
FM101500 23013G20KT P6SM SCT050 BKN100

Example: see airport list